Alta Sierra, California
Current Conditions -  °F | °C
As of 9:00 AM on Thursday 23 Oct 2014 (Local Time) from KGOO Reporting Station
Clear Clear  
Wind Chill: 59°   Ceiling: Unl
Heat Index: 59°   Visibility: 10mi
Dew Point: 32°   Wind: 5mph
Humidity: 36%   Direction: 110°ESE
Pressure: 30.12"   Gusts: NA
Location:  39.2183°N, 120.924°W
Report Text: KGOO 231600Z AUTO 11004KT 10SM CLR 15/00 A3012 RMK AO1
Loading
Personal Weather Stations






























Interactive Weather Map New forecast layout! Learn more

10-Day Weather Forecast

Advertisements
Track Severe Weather on mobile